WZZ39EF LPMA-LEMD
Flight info
| Callsign | WZZ39EF |
|---|---|
| Flight time | N/A |
| Altitude | 36000 |
| Route | DEGUN DCT NARTA DCT PORTA DCT OGERO Z409 TLD |
| Aircraft | A321/M-SDE3FGHIRWY/LB1 |
Departure
| Time | 2026-05-01 14:49 |
|---|---|
| Airport | Cristiano Ronaldo International Airport (LPMA) |
Arrival
| Time | N/A |
|---|---|
| Airport | Adolfo Suárez Madrid–Barajas Airport (LEMD) |
| Time | Latitude | Longitude | Altitude | Speed | Heading |
|---|---|---|---|---|---|
| 2026-05-01 14:16 | 32.69386 | -16.77628 | 169 ft | 0 kts | 138° |
| 2026-05-01 14:41 | 32.69394 | -16.77636 | 169 ft | 4 kts | 138° |
| 2026-05-01 14:41 | 32.69411 | -16.77654 | 169 ft | 3 kts | 138° |
| 2026-05-01 14:41 | 32.69424 | -16.77675 | 169 ft | 4 kts | 89° |
| 2026-05-01 14:42 | 32.69416 | -16.77699 | 169 ft | 4 kts | 46° |
| 2026-05-01 14:42 | 32.69403 | -16.77715 | 169 ft | 0 kts | 46° |
| 2026-05-01 14:44 | 32.69421 | -16.77693 | 169 ft | 5 kts | 46° |
| 2026-05-01 14:44 | 32.69454 | -16.77651 | 169 ft | 10 kts | 46° |
| 2026-05-01 14:45 | 32.69505 | -16.77589 | 169 ft | 11 kts | 46° |
| 2026-05-01 14:45 | 32.69624 | -16.77441 | 169 ft | 14 kts | 46° |
| 2026-05-01 14:45 | 32.69692 | -16.77359 | 169 ft | 14 kts | 46° |
| 2026-05-01 14:46 | 32.69753 | -16.77283 | 175 ft | 12 kts | 46° |
| 2026-05-01 14:46 | 32.69927 | -16.77177 | 187 ft | 14 kts | 360° |
| 2026-05-01 14:46 | 32.70031 | -16.77155 | 186 ft | 17 kts | 33° |
| 2026-05-01 14:47 | 32.70129 | -16.77048 | 196 ft | 20 kts | 45° |
| 2026-05-01 14:47 | 32.70232 | -16.76927 | 193 ft | 21 kts | 44° |
| 2026-05-01 14:47 | 32.70322 | -16.76835 | 192 ft | 14 kts | 23° |
| 2026-05-01 14:48 | 32.70379 | -16.76762 | 191 ft | 7 kts | 197° |
| 2026-05-01 14:48 | 32.70248 | -16.76908 | 196 ft | 61 kts | 224° |
| 2026-05-01 14:48 | 32.69053 | -16.78310 | 466 ft | 151 kts | 223° |
| 2026-05-01 14:49 | 32.67208 | -16.79287 | 1936 ft | 155 kts | 178° |
| 2026-05-01 14:49 | 32.64822 | -16.78870 | 2585 ft | 194 kts | 175° |
| 2026-05-01 14:50 | 32.62983 | -16.78241 | 2858 ft | 228 kts | 149° |
| 2026-05-01 14:50 | 32.62014 | -16.72969 | 4118 ft | 277 kts | 82° |
| 2026-05-01 14:51 | 32.62357 | -16.70693 | 4930 ft | 282 kts | 80° |
| 2026-05-01 14:51 | 32.63152 | -16.66046 | 6438 ft | 293 kts | 82° |
| 2026-05-01 14:52 | 32.63909 | -16.61218 | 7886 ft | 302 kts | 82° |
| 2026-05-01 14:52 | 32.64264 | -16.58748 | 8618 ft | 306 kts | 82° |
| 2026-05-01 14:52 | 32.65704 | -16.53936 | 10092 ft | 316 kts | 54° |
| 2026-05-01 14:53 | 32.67147 | -16.51957 | 10675 ft | 322 kts | 41° |
| 2026-05-01 14:53 | 32.68832 | -16.50055 | 10855 ft | 346 kts | 41° |
| 2026-05-01 14:53 | 32.70635 | -16.48021 | 11031 ft | 368 kts | 41° |
| 2026-05-01 14:53 | 32.72507 | -16.45900 | 11515 ft | 377 kts | 42° |
| 2026-05-01 14:54 | 32.74413 | -16.43730 | 12144 ft | 381 kts | 41° |
| 2026-05-01 14:54 | 32.76339 | -16.41529 | 12795 ft | 386 kts | 41° |
| 2026-05-01 14:54 | 32.78283 | -16.39303 | 13440 ft | 390 kts | 41° |
| 2026-05-01 14:54 | 32.80220 | -16.37078 | 14067 ft | 394 kts | 41° |
| 2026-05-01 14:55 | 32.82192 | -16.34816 | 14635 ft | 399 kts | 41° |
| 2026-05-01 14:55 | 32.84204 | -16.32510 | 15208 ft | 404 kts | 41° |
| 2026-05-01 14:55 | 32.86235 | -16.30184 | 15757 ft | 408 kts | 41° |
| 2026-05-01 14:55 | 32.88294 | -16.27828 | 16329 ft | 413 kts | 41° |
| 2026-05-01 14:56 | 32.90377 | -16.25442 | 16887 ft | 418 kts | 41° |
| 2026-05-01 14:56 | 32.92485 | -16.23021 | 17435 ft | 423 kts | 41° |
| 2026-05-01 14:56 | 32.94614 | -16.20574 | 17990 ft | 427 kts | 41° |
| 2026-05-01 14:56 | 32.96763 | -16.18101 | 18521 ft | 432 kts | 41° |
| 2026-05-01 14:57 | 32.98934 | -16.15602 | 18997 ft | 436 kts | 41° |
| 2026-05-01 14:57 | 33.03346 | -16.10521 | 20008 ft | 443 kts | 41° |
| 2026-05-01 14:57 | 33.05574 | -16.07953 | 20520 ft | 447 kts | 41° |
| 2026-05-01 14:58 | 33.07810 | -16.05375 | 21035 ft | 450 kts | 41° |
| 2026-05-01 14:58 | 33.10073 | -16.02765 | 21536 ft | 454 kts | 41° |
| 2026-05-01 14:58 | 33.12349 | -16.00134 | 22024 ft | 457 kts | 41° |
| 2026-05-01 14:58 | 33.14610 | -15.97516 | 22491 ft | 460 kts | 41° |
| 2026-05-01 14:59 | 33.16919 | -15.94843 | 22958 ft | 464 kts | 41° |
| 2026-05-01 14:59 | 33.19236 | -15.92159 | 23410 ft | 467 kts | 41° |
| 2026-05-01 14:59 | 33.21581 | -15.89443 | 23839 ft | 470 kts | 41° |
| 2026-05-01 14:59 | 33.23936 | -15.86714 | 24212 ft | 473 kts | 41° |
| 2026-05-01 15:00 | 33.28686 | -15.81200 | 24973 ft | 478 kts | 41° |
| 2026-05-01 15:00 | 33.31076 | -15.78420 | 25344 ft | 481 kts | 40° |
| 2026-05-01 15:00 | 33.33480 | -15.75621 | 25719 ft | 483 kts | 40° |
| 2026-05-01 15:01 | 33.35890 | -15.72811 | 26076 ft | 486 kts | 40° |
| 2026-05-01 15:01 | 33.38290 | -15.70009 | 26434 ft | 489 kts | 40° |
| 2026-05-01 15:01 | 33.40728 | -15.67161 | 26792 ft | 491 kts | 40° |
| 2026-05-01 15:01 | 33.43187 | -15.64295 | 27147 ft | 494 kts | 40° |
| 2026-05-01 15:02 | 33.45672 | -15.61458 | 27503 ft | 496 kts | 39° |
| 2026-05-01 15:02 | 33.46521 | -15.60502 | 27629 ft | 496 kts | 39° |
| 2026-05-01 15:02 | 33.50743 | -15.55797 | 28192 ft | 500 kts | 39° |
| 2026-05-01 15:02 | 33.53303 | -15.52952 | 28523 ft | 503 kts | 39° |
| 2026-05-01 15:03 | 33.55869 | -15.50091 | 28842 ft | 505 kts | 39° |
| 2026-05-01 15:03 | 33.58445 | -15.47201 | 29151 ft | 508 kts | 39° |
| 2026-05-01 15:03 | 33.61024 | -15.44291 | 29487 ft | 510 kts | 39° |
| 2026-05-01 15:03 | 33.63614 | -15.41356 | 29816 ft | 513 kts | 39° |
| 2026-05-01 15:04 | 33.66214 | -15.38407 | 30140 ft | 515 kts | 39° |
| 2026-05-01 15:04 | 33.68829 | -15.35441 | 30439 ft | 517 kts | 39° |
| 2026-05-01 15:04 | 33.71445 | -15.32476 | 30835 ft | 516 kts | 39° |
| 2026-05-01 15:04 | 33.74011 | -15.29563 | 31196 ft | 516 kts | 39° |
| 2026-05-01 15:05 | 33.76655 | -15.26559 | 31585 ft | 515 kts | 39° |
| 2026-05-01 15:05 | 33.79259 | -15.23598 | 31955 ft | 515 kts | 39° |
| 2026-05-01 15:05 | 33.81828 | -15.20679 | 32320 ft | 514 kts | 39° |
| 2026-05-01 15:05 | 33.84422 | -15.17729 | 32685 ft | 514 kts | 39° |
| 2026-05-01 15:06 | 33.87020 | -15.14771 | 33046 ft | 514 kts | 39° |
| 2026-05-01 15:06 | 33.89616 | -15.11815 | 33402 ft | 513 kts | 39° |
| 2026-05-01 15:06 | 33.92206 | -15.08859 | 33752 ft | 513 kts | 39° |
| 2026-05-01 15:06 | 33.94794 | -15.05901 | 34107 ft | 513 kts | 39° |
| 2026-05-01 15:07 | 33.97385 | -15.02942 | 34419 ft | 512 kts | 39° |
| 2026-05-01 15:07 | 33.99977 | -14.99987 | 34718 ft | 512 kts | 39° |
| 2026-05-01 15:07 | 34.02564 | -14.97033 | 35016 ft | 512 kts | 39° |
| 2026-05-01 15:07 | 34.04278 | -14.95072 | 35207 ft | 512 kts | 39° |
| 2026-05-01 15:08 | 34.06858 | -14.92114 | 35502 ft | 512 kts | 39° |
| 2026-05-01 15:08 | 34.09442 | -14.89147 | 35791 ft | 512 kts | 39° |
| 2026-05-01 15:08 | 34.12023 | -14.86184 | 36091 ft | 512 kts | 39° |
| 2026-05-01 15:09 | 34.17171 | -14.80257 | 36159 ft | 511 kts | 39° |
| 2026-05-01 15:09 | 34.22307 | -14.74329 | 36161 ft | 510 kts | 39° |
| 2026-05-01 15:10 | 34.27453 | -14.68395 | 36152 ft | 510 kts | 39° |
| 2026-05-01 15:10 | 34.35153 | -14.59483 | 36156 ft | 510 kts | 39° |
| 2026-05-01 15:11 | 34.42811 | -14.50591 | 36162 ft | 511 kts | 39° |
| 2026-05-01 15:12 | 34.47948 | -14.44628 | 36163 ft | 511 kts | 39° |
| 2026-05-01 15:12 | 34.55648 | -14.35669 | 36168 ft | 511 kts | 39° |
| 2026-05-01 15:14 | 34.68459 | -14.20679 | 36167 ft | 512 kts | 39° |
| 2026-05-01 15:14 | 34.76147 | -14.11661 | 36162 ft | 512 kts | 39° |
| 2026-05-01 15:15 | 34.86391 | -13.99603 | 36164 ft | 512 kts | 39° |
| 2026-05-01 15:16 | 34.96620 | -13.87503 | 36166 ft | 513 kts | 39° |
| 2026-05-01 15:18 | 35.09390 | -13.72366 | 36171 ft | 513 kts | 39° |
| 2026-05-01 15:19 | 35.19596 | -13.60178 | 36170 ft | 513 kts | 39° |
| 2026-05-01 15:19 | 35.27261 | -13.51023 | 36158 ft | 514 kts | 39° |
| 2026-05-01 15:20 | 35.34927 | -13.41838 | 36158 ft | 514 kts | 39° |
| 2026-05-01 15:21 | 35.40039 | -13.35697 | 36162 ft | 514 kts | 39° |
| 2026-05-01 15:21 | 35.45148 | -13.29550 | 36161 ft | 514 kts | 39° |
| 2026-05-01 15:22 | 35.52814 | -13.20305 | 36165 ft | 515 kts | 39° |
| 2026-05-01 15:22 | 35.57917 | -13.14123 | 36166 ft | 515 kts | 40° |
| 2026-05-01 15:23 | 35.63017 | -13.07941 | 36167 ft | 515 kts | 40° |
| 2026-05-01 15:23 | 35.68122 | -13.01747 | 36171 ft | 516 kts | 40° |
| 2026-05-01 15:24 | 35.73189 | -12.95582 | 36167 ft | 516 kts | 40° |
| 2026-05-01 15:24 | 35.78293 | -12.89362 | 36168 ft | 516 kts | 40° |
| 2026-05-01 15:25 | 35.83398 | -12.83133 | 36170 ft | 516 kts | 40° |
| 2026-05-01 15:25 | 35.88497 | -12.76885 | 36169 ft | 516 kts | 40° |
| 2026-05-01 15:26 | 35.93592 | -12.70645 | 36174 ft | 516 kts | 40° |
| 2026-05-01 15:26 | 35.98694 | -12.64397 | 36177 ft | 517 kts | 40° |
| 2026-05-01 15:27 | 36.03785 | -12.58127 | 36176 ft | 517 kts | 40° |
| 2026-05-01 15:28 | 36.10891 | -12.48019 | 36174 ft | 520 kts | 46° |
| 2026-05-01 15:28 | 36.15506 | -12.41124 | 36168 ft | 520 kts | 46° |
| 2026-05-01 15:29 | 36.22451 | -12.30776 | 36176 ft | 520 kts | 47° |
| 2026-05-01 15:30 | 36.31667 | -12.16948 | 36178 ft | 520 kts | 47° |
| 2026-05-01 15:31 | 36.45447 | -11.96220 | 36183 ft | 520 kts | 47° |
| 2026-05-01 15:32 | 36.54611 | -11.82335 | 36184 ft | 519 kts | 47° |
| 2026-05-01 15:34 | 36.68313 | -11.61436 | 36186 ft | 519 kts | 47° |